Time;durP1;ratioP1;P1;durP2;ratioP2;P2;SDS_P1;SDS_P2;PMS_P1;PMS_P2;Temp;Humidity;BMP_temperature;BMP_pressure;BME280_temperature;BME280_humidity;BME280_pressure;Samples;Min_cycle;Max_cycle;Signal;HPM_P1;HPM_P2
2022/03/19 00:02:20;;;;;;;24.52;6.25;;;5.80;14.80;;;;;;6091544;23;20019;-85
2022/03/19 00:04:46;;;;;;;34.97;6.55;;;4.40;12.50;;;;;;6091194;23;20068;-84
2022/03/19 00:07:12;;;;;;;21.88;5.95;;;4.90;20.70;;;;;;6093275;23;20069;-84
2022/03/19 00:09:39;;;;;;;29.27;6.13;;;4.50;17.30;;;;;;6065403;23;20070;-91
2022/03/19 00:12:08;;;;;;;23.30;5.72;;;5.80;18.30;;;;;;6090299;23;20093;-88
2022/03/19 00:14:34;;;;;;;22.17;4.85;;;4.40;17.20;;;;;;6064381;23;20029;-90
2022/03/19 00:17:00;;;;;;;29.65;5.57;;;5.50;23.50;;;;;;6068036;23;20022;-84
2022/03/19 00:19:27;;;;;;;26.35;5.22;;;4.30;16.90;;;;;;6066703;23;20029;-84
2022/03/19 00:21:53;;;;;;;23.50;5.05;;;5.40;22.90;;;;;;6091994;23;20018;-84
2022/03/19 00:24:19;;;;;;;34.28;5.75;;;5.60;21.30;;;;;;6089345;23;20074;-83
2022/03/19 00:26:45;;;;;;;24.13;5.10;;;4.60;24.50;;;;;;6090088;23;20018;-84
2022/03/19 00:29:10;;;;;;;24.75;4.97;;;4.40;24.40;;;;;;6090055;23;20122;-84
2022/03/19 00:31:36;;;;;;;24.75;5.07;;;4.30;22.90;;;;;;6042634;23;20049;-84
2022/03/19 00:34:02;;;;;;;22.60;5.10;;;6.40;22.10;;;;;;6064433;23;20126;-86
2022/03/19 00:36:28;;;;;;;26.48;5.43;;;4.30;23.20;;;;;;6092971;23;20249;-85
2022/03/19 00:38:54;;;;;;;25.85;5.35;;;4.20;22.50;;;;;;6070079;23;20023;-84
2022/03/19 00:41:21;;;;;;;19.42;4.97;;;3.80;26.20;;;;;;6094989;23;20108;-84
2022/03/19 00:43:47;;;;;;;24.73;5.07;;;3.50;26.50;;;;;;6067549;23;20082;-84
2022/03/19 00:46:15;;;;;;;21.00;4.97;;;4.50;24.70;;;;;;6094379;23;20025;-84
2022/03/19 00:48:41;;;;;;;28.48;5.70;;;6.60;24.80;;;;;;6094475;23;20128;-84
2022/03/19 00:51:07;;;;;;;29.15;5.53;;;5.70;23.90;;;;;;6092640;23;20169;-91
2022/03/19 00:53:33;;;;;;;22.42;5.10;;;4.10;27.10;;;;;;6089472;23;20022;-85
2022/03/19 00:55:59;;;;;;;25.70;5.97;;;4.50;25.70;;;;;;6067256;23;20469;-85
2022/03/19 00:58:24;;;;;;;22.15;5.15;;;4.00;27.60;;;;;;6063892;23;20019;-84
2022/03/19 01:00:50;;;;;;;45.75;6.45;;;6.40;31.00;;;;;;6040786;23;20469;-86
2022/03/19 01:03:16;;;;;;;28.63;5.30;;;3.80;32.70;;;;;;6090469;23;20022;-90
2022/03/19 01:05:42;;;;;;;23.73;4.95;;;5.90;34.50;;;;;;6064805;23;20022;-84
2022/03/19 01:08:08;;;;;;;21.95;4.55;;;6.50;32.10;;;;;;6088682;23;20339;-88
2022/03/19 01:10:35;;;;;;;22.85;4.97;;;4.70;38.50;;;;;;6089163;23;20085;-84
2022/03/19 01:13:03;;;;;;;25.90;5.18;;;4.30;43.80;;;;;;6090226;23;20045;-91
2022/03/19 01:15:29;;;;;;;23.00;4.55;;;6.00;38.20;;;;;;6088498;23;20078;-84
2022/03/19 01:17:55;;;;;;;22.10;4.35;;;3.90;41.80;;;;;;6063488;23;20357;-84
2022/03/19 01:20:22;;;;;;;22.25;4.63;;;5.90;43.30;;;;;;6089661;23;20042;-83
2022/03/19 01:22:49;;;;;;;26.52;4.90;;;4.00;33.30;;;;;;6091476;23;20034;-85
2022/03/19 01:25:16;;;;;;;27.70;4.40;;;4.30;45.60;;;;;;6089579;23;20094;-84
2022/03/19 01:27:44;;;;;;;30.13;4.50;;;3.70;39.80;;;;;;6039814;23;20037;-91
2022/03/19 01:30:12;;;;;;;21.40;4.68;;;3.10;48.10;;;;;;6089310;23;20106;-90
2022/03/19 01:32:38;;;;;;;25.13;4.85;;;4.10;43.10;;;;;;6089690;23;20026;-84
2022/03/19 01:35:04;;;;;;;27.98;4.88;;;4.10;41.30;;;;;;6090434;23;20022;-85
2022/03/19 01:37:30;;;;;;;26.58;4.93;;;3.30;45.80;;;;;;6088947;23;20018;-85
2022/03/19 01:39:56;;;;;;;24.20;4.15;;;4.00;37.80;;;;;;6094066;23;20429;-84
2022/03/19 01:42:34;;;;;;;26.15;4.63;;;3.80;48.30;;;;;;6044159;23;20022;-84
2022/03/19 01:45:01;;;;;;;22.13;4.90;;;2.80;51.20;;;;;;6091600;23;20723;-84
2022/03/19 01:47:28;;;;;;;24.75;4.82;;;4.00;52.00;;;;;;6087936;23;20018;-84
2022/03/19 01:49:55;;;;;;;27.98;5.07;;;5.10;49.80;;;;;;6088764;23;20148;-85
2022/03/19 01:52:21;;;;;;;20.30;4.50;;;3.90;50.10;;;;;;6092076;23;20023;-84
2022/03/19 01:54:49;;;;;;;28.42;5.05;;;5.00;52.60;;;;;;6064449;23;20050;-85
2022/03/19 01:57:17;;;;;;;27.73;4.65;;;3.80;47.30;;;;;;6088803;23;20046;-90
2022/03/19 01:59:44;;;;;;;21.63;4.95;;;2.40;47.10;;;;;;6091295;23;20073;-86
2022/03/19 02:02:11;;;;;;;22.73;4.70;;;5.40;53.70;;;;;;6093179;23;20345;-84
2022/03/19 02:04:38;;;;;;;24.07;4.53;;;4.90;50.30;;;;;;6088154;23;20019;-84
2022/03/19 02:07:07;;;;;;;19.25;4.30;;;6.40;50.10;;;;;;6090660;23;20239;-84
2022/03/19 02:09:33;;;;;;;24.58;4.72;;;5.80;61.90;;;;;;6088846;23;20098;-84
2022/03/19 02:11:59;;;;;;;24.10;4.32;;;3.50;60.30;;;;;;6066278;23;20018;-84
2022/03/19 02:14:26;;;;;;;25.75;4.85;;;;;;;;;;6087557;23;20046;-87
2022/03/19 02:16:52;;;;;;;22.13;4.53;;;6.20;63.50;;;;;;6090586;23;20101;-84
2022/03/19 02:19:18;;;;;;;28.92;4.95;;;3.60;60.50;;;;;;6041779;23;20061;-86
2022/03/19 02:21:48;;;;;;;30.85;5.68;;;4.90;60.10;;;;;;6067201;23;20023;-85
2022/03/19 02:27:01;;;;;;;24.65;4.43;;;6.40;55.90;;;;;;6093760;23;20029;-90
2022/03/19 02:29:27;;;;;;;28.88;5.47;;;5.60;64.20;;;;;;6091481;23;20442;-83
2022/03/19 02:31:55;;;;;;;26.95;5.35;;;4.00;53.10;;;;;;6043992;23;20018;-83
2022/03/19 02:34:21;;;;;;;32.00;5.97;;;4.00;59.50;;;;;;6091387;23;20221;-84
2022/03/19 02:36:47;;;;;;;18.08;4.03;;;5.30;55.70;;;;;;6015244;23;20034;-90
2022/03/19 02:39:17;;;;;;;26.63;5.00;;;4.50;57.70;;;;;;6037891;23;20481;-84
2022/03/19 02:41:44;;;;;;;28.88;5.15;;;4.10;56.50;;;;;;6064285;23;20023;-90
2022/03/19 02:44:11;;;;;;;33.95;5.40;;;4.00;51.60;;;;;;6062394;23;20101;-89
2022/03/19 02:46:41;;;;;;;24.80;5.30;;;3.90;53.60;;;;;;6062882;23;20642;-83
2022/03/19 02:49:08;;;;;;;28.38;4.95;;;6.20;54.80;;;;;;6083948;23;20757;-84
2022/03/19 02:51:38;;;;;;;32.17;5.65;;;3.20;62.90;;;;;;6062546;23;20019;-84
2022/03/19 02:54:05;;;;;;;22.42;4.97;;;3.90;60.60;;;;;;6061722;23;20432;-89
2022/03/19 02:56:35;;;;;;;28.70;5.83;;;4.10;63.20;;;;;;6060451;23;20361;-84
2022/03/19 02:59:21;;;;;;;20.95;5.20;;;4.10;63.10;;;;;;6062478;23;20023;-85
2022/03/19 03:01:53;;;;;;;26.77;5.35;;;3.80;53.00;;;;;;6063243;23;20019;-84
2022/03/19 03:04:19;;;;;;;34.85;5.88;;;3.50;57.00;;;;;;6084477;23;20438;-88
2022/03/19 03:06:48;;;;;;;29.15;6.00;;;3.40;61.00;;;;;;6062821;23;20090;-84
2022/03/19 03:09:14;;;;;;;22.58;5.88;;;3.60;69.20;;;;;;6059875;23;20030;-85
2022/03/19 03:11:40;;;;;;;21.65;5.35;;;3.60;73.70;;;;;;6083735;23;20015;-85
2022/03/19 03:14:08;;;;;;;30.27;6.70;;;3.40;72.70;;;;;;6062382;23;20414;-85
2022/03/19 03:16:34;;;;;;;23.73;5.90;;;2.10;67.30;;;;;;6062730;23;20025;-84
2022/03/19 03:19:08;;;;;;;27.02;6.10;;;3.00;70.00;;;;;;6062577;23;20023;-84
2022/03/19 03:21:35;;;;;;;25.08;5.65;;;3.40;64.60;;;;;;6063705;23;20102;-90
2022/03/19 03:24:02;;;;;;;27.73;5.82;;;2.90;71.70;;;;;;6061377;23;20019;-84
2022/03/19 03:26:29;;;;;;;25.65;6.30;;;4.90;74.40;;;;;;6083351;23;20026;-88
2022/03/19 03:28:54;;;;;;;26.92;6.22;;;3.20;66.10;;;;;;6063058;23;20350;-84
2022/03/19 03:31:20;;;;;;;32.63;5.43;;;3.30;73.20;;;;;;6061829;23;20025;-89
2022/03/19 03:33:46;;;;;;;31.08;6.90;;;3.20;71.40;;;;;;6062493;23;20102;-84
2022/03/19 03:36:12;;;;;;;24.48;6.40;;;1.00;70.70;;;;;;6062042;23;20059;-84
2022/03/19 03:38:39;;;;;;;27.40;6.78;;;6.00;79.50;;;;;;6061579;23;20015;-84
2022/03/19 03:41:05;;;;;;;30.92;6.80;;;5.90;74.70;;;;;;6066396;23;20015;-84
2022/03/19 03:43:32;;;;;;;22.13;6.07;;;4.10;73.70;;;;;;6066002;23;20174;-84
2022/03/19 03:45:58;;;;;;;29.08;6.50;;;3.80;83.60;;;;;;6064184;23;20077;-84
2022/03/19 03:48:24;;;;;;;22.15;5.70;;;2.70;82.50;;;;;;6059747;23;20027;-84
2022/03/19 03:50:53;;;;;;;32.10;6.70;;;3.80;83.70;;;;;;6063344;23;20339;-84
2022/03/19 03:53:20;;;;;;;20.48;6.05;;;2.70;83.10;;;;;;6061916;23;20023;-90
2022/03/19 03:55:46;;;;;;;22.73;5.55;;;;;;;;;;6061926;23;20063;-84
2022/03/19 03:58:12;;;;;;;261.05;20.50;;;;;;;;;;6065458;23;20086;-86
2022/03/19 04:00:38;;;;;;;22.77;6.53;;;3.20;88.50;;;;;;6060302;23;20081;-84
2022/03/19 04:03:04;;;;;;;64.20;8.48;;;4.30;87.50;;;;;;6036752;23;20023;-85
2022/03/19 04:05:30;;;;;;;26.33;6.43;;;3.40;90.30;;;;;;6061840;23;20019;-84
2022/03/19 04:07:57;;;;;;;24.70;6.53;;;3.10;85.10;;;;;;6084547;23;20033;-84
2022/03/19 04:10:22;;;;;;;35.13;6.85;;;4.00;88.50;;;;;;6084501;23;20023;-90
2022/03/19 04:12:48;;;;;;;35.90;7.18;;;2.90;81.80;;;;;;6061657;23;20029;-84
2022/03/19 04:15:14;;;;;;;31.23;7.28;;;2.70;96.30;;;;;;6036809;23;20026;-87
2022/03/19 04:17:40;;;;;;;24.27;7.20;;;4.60;95.60;;;;;;6060043;23;20086;-84
2022/03/19 04:20:07;;;;;;;34.75;7.72;;;3.70;98.10;;;;;;6063083;23;20022;-84
2022/03/19 04:22:36;;;;;;;33.47;7.25;;;3.20;97.60;;;;;;6062846;23;20053;-85
2022/03/19 04:25:03;;;;;;;31.77;7.80;;;;;;;;;;6088489;23;20029;-84
2022/03/19 04:27:28;;;;;;;27.98;7.78;;;4.00;98.40;;;;;;6061585;23;20023;-85
2022/03/19 04:29:54;;;;;;;27.80;7.85;;;4.60;97.40;;;;;;6065114;23;20413;-85
2022/03/19 04:32:20;;;;;;;26.77;8.10;;;5.60;99.20;;;;;;6062581;23;20023;-84
2022/03/19 04:34:45;;;;;;;42.53;8.75;;;5.10;98.60;;;;;;6036648;23;20046;-86
2022/03/19 04:37:11;;;;;;;33.25;8.75;;;1.90;95.00;;;;;;6084217;23;20030;-85
2022/03/19 04:39:37;;;;;;;31.23;8.88;;;3.70;97.70;;;;;;6064618;23;20020;-86
2022/03/19 04:42:03;;;;;;;26.92;8.55;;;2.00;96.00;;;;;;6065817;23;20018;-85
2022/03/19 04:44:28;;;;;;;44.10;8.93;;;3.40;96.90;;;;;;6039139;23;20018;-84
2022/03/19 04:46:55;;;;;;;35.28;9.23;;;;;;;;;;6088244;23;20098;-90
2022/03/19 04:49:20;;;;;;;29.17;9.07;;;3.50;97.80;;;;;;6064322;23;20018;-85
2022/03/19 04:51:49;;;;;;;29.98;8.77;;;6.00;96.90;;;;;;6064818;23;20134;-85
2022/03/19 04:54:16;;;;;;;44.20;8.82;;;4.60;98.40;;;;;;6089666;23;20019;-84
2022/03/19 04:56:42;;;;;;;31.13;7.80;;;3.60;94.00;;;;;;6090614;23;20125;-84
2022/03/19 04:59:11;;;;;;;37.63;8.85;;;3.60;95.90;;;;;;6068928;23;20022;-84
2022/03/19 05:01:39;;;;;;;36.28;8.40;;;5.80;93.60;;;;;;6066290;23;20022;-91
2022/03/19 05:04:05;;;;;;;36.75;9.15;;;3.20;94.30;;;;;;6065560;23;20024;-86
2022/03/19 05:06:31;;;;;;;28.98;8.73;;;;;;;;;;6067463;23;20485;-84
2022/03/19 05:11:42;;;;;;;34.58;9.73;;;5.20;96.30;;;;;;6090305;23;20031;-85
2022/03/19 05:14:08;;;;;;;29.17;8.73;;;3.40;93.60;;;;;;6043883;23;20019;-84
2022/03/19 05:16:34;;;;;;;35.55;9.07;;;3.30;96.10;;;;;;6089854;23;20022;-84
2022/03/19 05:19:00;;;;;;;52.00;9.70;;;;;;;;;;6092535;23;20490;-85
2022/03/19 05:21:27;;;;;;;37.40;9.82;;;3.50;91.90;;;;;;6092201;23;20121;-90
2022/03/19 05:23:53;;;;;;;31.15;9.45;;;3.70;98.60;;;;;;6091498;23;20058;-86
2022/03/19 05:26:19;;;;;;;40.50;9.95;;;5.90;94.30;;;;;;6090304;23;20022;-84
2022/03/19 05:28:45;;;;;;;37.55;10.15;;;;;;;;;;6018840;23;20086;-85
2022/03/19 05:31:12;;;;;;;34.88;9.60;;;3.60;93.00;;;;;;6068672;23;20493;-86
2022/03/19 05:36:24;;;;;;;36.35;9.00;;;6.00;93.70;;;;;;6091661;23;20026;-86
2022/03/19 05:38:50;;;;;;;38.13;9.13;;;3.50;93.10;;;;;;6068885;23;20030;-85
2022/03/19 05:41:16;;;;;;;37.20;9.55;;;6.10;95.90;;;;;;6069865;23;20299;-85
2022/03/19 05:43:43;;;;;;;39.55;9.88;;;5.30;93.70;;;;;;6094475;23;20026;-86
2022/03/19 05:46:09;;;;;;;30.88;8.77;;;2.80;93.80;;;;;;6046187;23;20018;-85
2022/03/19 05:48:34;;;;;;;37.25;8.82;;;3.70;99.40;;;;;;6046171;23;20045;-84
2022/03/19 05:51:01;;;;;;;38.55;10.10;;;1.70;96.60;;;;;;6068757;23;20019;-84
2022/03/19 05:53:27;;;;;;;39.20;10.25;;;3.50;96.40;;;;;;6093251;23;20021;-84
2022/03/19 05:55:53;;;;;;;32.65;9.50;;;3.60;95.40;;;;;;6091756;23;20029;-86
2022/03/19 05:58:19;;;;;;;30.40;9.05;;;3.60;92.70;;;;;;6094033;23;20022;-85
2022/03/19 06:00:45;;;;;;;30.48;9.75;;;3.60;95.10;;;;;;6095054;23;20105;-84
2022/03/19 06:03:11;;;;;;;33.15;9.90;;;6.10;94.00;;;;;;6087553;23;20038;-84
2022/03/19 06:05:37;;;;;;;35.60;9.77;;;2.80;97.20;;;;;;6089150;23;20284;-87
2022/03/19 06:08:04;;;;;;;28.95;8.98;;;3.70;95.40;;;;;;6042312;23;20312;-84
2022/03/19 06:10:29;;;;;;;30.27;9.43;;;3.80;94.50;;;;;;6092089;23;20014;-84
2022/03/19 06:12:55;;;;;;;29.98;8.85;;;4.90;93.90;;;;;;6093168;23;20018;-85
2022/03/19 06:15:21;;;;;;;35.17;9.48;;;2.90;93.20;;;;;;6092024;23;20026;-85
2022/03/19 06:17:47;;;;;;;31.80;9.52;;;2.90;93.60;;;;;;6063472;23;20019;-85
2022/03/19 06:20:12;;;;;;;40.13;10.13;;;3.70;88.30;;;;;;6089624;23;20142;-85
2022/03/19 06:22:41;;;;;;;34.08;10.07;;;3.80;95.80;;;;;;6065124;23;20030;-85
2022/03/19 06:25:08;;;;;;;32.45;9.43;;;3.70;89.40;;;;;;6041168;23;20033;-85
2022/03/19 06:27:33;;;;;;;31.27;9.40;;;3.70;89.50;;;;;;6093115;23;20029;-91
2022/03/19 06:29:59;;;;;;;37.65;9.80;;;;;;;;;;6067376;23;20053;-84
2022/03/19 06:32:28;;;;;;;30.33;8.15;;;4.30;88.70;;;;;;6093943;23;20438;-90
2022/03/19 06:34:54;;;;;;;30.33;10.38;;;;;;;;;;6043749;23;20439;-86
2022/03/19 06:37:21;;;;;;;24.48;9.95;;;4.10;73.30;;;;;;6043763;23;20022;-91
2022/03/19 06:39:54;;;;;;;31.52;9.60;;;4.20;80.80;;;;;;6091909;23;20030;-85
2022/03/19 06:42:21;;;;;;;23.48;9.07;;;3.70;78.60;;;;;;6093430;23;20050;-87
2022/03/19 06:44:47;;;;;;;26.58;9.48;;;5.00;74.40;;;;;;6067226;23;20023;-86
2022/03/19 06:47:12;;;;;;;27.60;9.48;;;4.90;69.70;;;;;;6094290;23;20019;-91
2022/03/19 06:49:38;;;;;;;32.05;8.85;;;4.10;71.90;;;;;;6092605;23;20074;-88
2022/03/19 06:52:07;;;;;;;27.80;9.27;;;6.30;70.00;;;;;;6093131;23;20338;-85
2022/03/19 06:54:33;;;;;;;25.80;9.48;;;4.30;71.30;;;;;;6066005;23;20096;-85
2022/03/19 06:56:59;;;;;;;24.02;10.00;;;4.40;67.60;;;;;;6068157;23;20121;-86
2022/03/19 06:59:25;;;;;;;32.13;11.15;;;6.60;70.80;;;;;;6092947;23;20419;-87
2022/03/19 07:01:50;;;;;;;38.92;10.82;;;5.30;66.90;;;;;;6093096;23;20440;-86
2022/03/19 07:04:16;;;;;;;28.92;9.25;;;4.50;64.50;;;;;;6093615;23;20078;-90
2022/03/19 07:06:42;;;;;;;32.75;9.65;;;6.20;59.40;;;;;;6094152;23;20341;-86
2022/03/19 07:09:07;;;;;;;28.27;9.65;;;4.70;57.70;;;;;;6094459;23;20025;-86
2022/03/19 07:11:36;;;;;;;41.95;10.30;;;5.10;60.50;;;;;;6092663;23;20026;-86
2022/03/19 07:14:04;;;;;;;35.35;10.52;;;7.20;53.40;;;;;;6069335;23;20173;-86
2022/03/19 07:16:30;;;;;;;30.35;9.32;;;7.10;49.20;;;;;;6096436;23;20283;-85
2022/03/19 07:18:56;;;;;;;27.65;10.55;;;4.80;56.10;;;;;;6069678;23;20014;-87
2022/03/19 07:21:22;;;;;;;31.60;10.02;;;6.10;50.30;;;;;;6095764;23;20101;-86
2022/03/19 07:23:48;;;;;;;34.30;11.00;;;5.20;45.80;;;;;;6095373;23;20040;-86
2022/03/19 07:26:14;;;;;;;28.05;9.50;;;5.30;45.20;;;;;;6095591;23;20018;-85
2022/03/19 07:28:40;;;;;;;27.98;10.88;;;7.50;41.60;;;;;;6095089;23;20110;-92
2022/03/19 07:31:06;;;;;;;38.03;10.30;;;5.40;34.60;;;;;;6095838;23;20041;-86
2022/03/19 07:33:34;;;;;;;37.85;10.45;;;5.80;35.90;;;;;;6069274;23;20022;-86
2022/03/19 07:36:04;;;;;;;29.50;11.35;;;7.60;36.30;;;;;;6093777;23;20454;-85
2022/03/19 07:38:31;;;;;;;34.20;10.73;;;5.60;34.60;;;;;;6070211;23;20354;-85
2022/03/19 07:43:42;;;;;;;29.63;10.10;;;5.70;28.80;;;;;;6095235;23;20488;-92
2022/03/19 07:46:09;;;;;;;30.27;10.15;;;6.30;31.00;;;;;;6095828;23;20129;-85
2022/03/19 07:48:35;;;;;;;30.48;9.85;;;7.20;31.30;;;;;;6095070;23;20351;-89
2022/03/19 07:51:00;;;;;;;26.23;9.27;;;5.90;32.40;;;;;;6070094;23;20021;-86
2022/03/19 07:53:26;;;;;;;30.52;9.15;;;6.40;28.60;;;;;;6096999;23;20101;-88
2022/03/19 07:55:53;;;;;;;27.50;9.32;;;7.60;27.90;;;;;;6073917;23;20015;-89
2022/03/19 07:58:19;;;;;;;31.87;8.90;;;8.60;19.40;;;;;;6097163;23;20015;-89
2022/03/19 08:00:45;;;;;;;19.85;7.18;;;10.30;1.00;;;;;;6095397;23;20238;-86
2022/03/19 08:03:11;;;;;;;20.90;7.38;;;12.40;1.00;;;;;;6094950;23;20085;-87
2022/03/19 08:05:39;;;;;;;21.58;6.95;;;12.70;1.00;;;;;;6070516;23;20441;-87
2022/03/19 08:08:06;;;;;;;21.08;6.38;;;12.30;1.00;;;;;;6096466;23;20108;-87
2022/03/19 08:10:33;;;;;;;24.83;8.02;;;14.20;1.00;;;;;;6071259;23;20054;-89
2022/03/19 08:13:06;;;;;;;20.55;6.43;;;15.10;1.00;;;;;;6046499;23;20097;-88
2022/03/19 08:15:32;;;;;;;23.08;6.07;;;15.40;1.00;;;;;;6069924;23;20088;-88
2022/03/19 08:17:59;;;;;;;20.70;5.72;;;16.10;1.00;;;;;;6069367;23;20453;-87
2022/03/19 08:20:26;;;;;;;19.70;5.53;;;16.70;1.00;;;;;;6069692;23;20014;-87
2022/03/19 08:22:55;;;;;;;18.52;5.97;;;17.00;1.00;;;;;;6095456;23;20014;-87
2022/03/19 08:25:21;;;;;;;18.25;5.25;;;17.00;1.00;;;;;;6095827;23;20384;-87
2022/03/19 08:27:46;;;;;;;17.42;5.22;;;17.30;1.00;;;;;;6069204;23;20014;-87
2022/03/19 08:30:12;;;;;;;18.92;4.88;;;17.80;1.00;;;;;;6094905;23;20105;-85
2022/03/19 08:32:38;;;;;;;17.02;4.88;;;18.40;1.00;;;;;;6094829;23;20554;-85
2022/03/19 08:35:04;;;;;;;16.10;4.93;;;18.70;1.00;;;;;;6095242;23;20014;-87
2022/03/19 08:37:32;;;;;;;25.05;5.18;;;18.90;1.00;;;;;;6095745;23;20010;-88
2022/03/19 08:40:17;;;;;;;21.02;4.82;;;18.70;1.00;;;;;;6095487;23;20073;-90
2022/03/19 08:42:51;;;;;;;21.10;5.22;;;19.30;1.00;;;;;;6095286;23;20022;-85
2022/03/19 08:45:19;;;;;;;20.58;5.05;;;18.80;1.00;;;;;;6094427;23;20409;-85
2022/03/19 08:47:45;;;;;;;18.33;4.78;;;18.90;1.00;;;;;;6069158;23;20022;-87
2022/03/19 08:50:11;;;;;;;16.98;4.57;;;19.20;1.00;;;;;;6094636;23;20014;-90
2022/03/19 08:52:37;;;;;;;17.73;4.93;;;18.80;1.00;;;;;;6094226;23;20019;-89
2022/03/19 08:55:04;;;;;;;20.83;4.25;;;19.40;1.00;;;;;;6069320;23;20033;-87
2022/03/19 08:57:31;;;;;;;20.42;4.72;;;19.70;1.00;;;;;;6094801;23;20162;-87
2022/03/19 08:59:57;;;;;;;12.45;4.15;;;19.30;1.00;;;;;;6094357;23;20048;-88
2022/03/19 09:02:23;;;;;;;16.20;4.07;;;19.80;1.00;;;;;;6094679;23;20023;-87
2022/03/19 09:04:49;;;;;;;15.18;4.00;;;20.20;1.00;;;;;;6068385;23;20033;-87
2022/03/19 09:07:15;;;;;;;14.88;3.17;;;20.30;1.00;;;;;;6044988;23;20022;-88
2022/03/19 09:09:41;;;;;;;15.75;4.47;;;20.20;1.00;;;;;;6095899;23;20049;-86
2022/03/19 09:12:09;;;;;;;17.02;4.35;;;20.60;1.00;;;;;;6093566;23;20410;-88
2022/03/19 09:14:35;;;;;;;20.65;4.57;;;20.30;99.90;;;;;;6095520;23;20026;-89
2022/03/19 09:17:01;;;;;;;16.27;3.80;;;20.90;99.90;;;;;;6095601;23;20334;-89
2022/03/19 09:19:27;;;;;;;18.08;3.80;;;20.20;99.90;;;;;;6095864;23;20086;-88
2022/03/19 09:21:54;;;;;;;19.13;3.78;;;20.60;99.90;;;;;;6069909;23;20089;-88
2022/03/19 09:24:20;;;;;;;16.93;3.73;;;21.20;99.90;;;;;;6095304;23;20025;-88
2022/03/19 09:26:46;;;;;;;18.20;3.67;;;21.40;99.90;;;;;;6070554;23;20318;-87
2022/03/19 09:29:14;;;;;;;12.00;3.28;;;21.40;99.90;;;;;;6069076;23;20023;-88
2022/03/19 09:31:41;;;;;;;14.43;3.70;;;21.60;99.90;;;;;;6096655;23;20464;-87
2022/03/19 09:34:07;;;;;;;14.10;3.47;;;21.60;99.90;;;;;;6092016;23;20057;-87
2022/03/19 09:36:32;;;;;;;12.07;3.20;;;21.70;99.90;;;;;;6095984;23;20022;-88
2022/03/19 09:38:58;;;;;;;18.27;3.60;;;21.70;99.90;;;;;;6095183;23;20087;-88
2022/03/19 09:41:24;;;;;;;17.95;3.50;;;22.00;99.90;;;;;;6070253;23;20346;-87
2022/03/19 09:43:50;;;;;;;17.13;3.83;;;22.50;99.90;;;;;;6095680;23;20497;-88
2022/03/19 09:46:16;;;;;;;14.07;4.05;;;21.90;99.90;;;;;;6095867;23;20026;-88
2022/03/19 09:48:42;;;;;;;13.85;3.47;;;22.40;99.90;;;;;;6095482;23;20018;-89
2022/03/19 09:51:09;;;;;;;14.57;3.55;;;22.70;99.90;;;;;;6094328;23;20541;-88
2022/03/19 09:53:36;;;;;;;21.77;3.97;;;22.90;99.90;;;;;;6094703;23;20377;-87
2022/03/19 09:56:03;;;;;;;16.58;3.58;;;23.10;99.90;;;;;;6044727;23;20030;-88
2022/03/19 09:58:29;;;;;;;12.48;3.17;;;23.60;99.90;;;;;;6095288;23;20080;-89
2022/03/19 10:01:03;;;;;;;13.43;3.30;;;23.50;99.90;;;;;;6095321;23;20081;-88
2022/03/19 10:03:32;;;;;;;14.88;3.40;;;23.50;99.90;;;;;;6095242;23;20085;-90
2022/03/19 10:08:57;;;;;;;15.35;3.40;;;23.00;99.90;;;;;;6095033;23;20022;-88
2022/03/19 10:11:27;;;;;;;14.43;3.38;;;21.70;99.90;;;;;;6044654;23;20098;-88
2022/03/19 10:13:52;;;;;;;13.52;3.70;;;22.20;99.90;;;;;;6094706;23;20023;-87
2022/03/19 10:16:20;;;;;;;16.10;3.60;;;22.50;99.90;;;;;;6068458;23;20027;-88
2022/03/19 10:18:57;;;;;;;15.60;3.10;;;23.00;99.90;;;;;;6094406;23;20015;-90
2022/03/19 10:21:24;;;;;;;13.65;3.35;;;23.20;99.90;;;;;;6094425;23;20022;-88
2022/03/19 10:23:53;;;;;;;12.18;3.17;;;22.20;99.90;;;;;;6068830;23;20327;-88
2022/03/19 10:26:37;;;;;;;13.43;3.30;;;21.80;99.90;;;;;;6070093;23;20379;-87
2022/03/19 10:29:09;;;;;;;14.95;3.30;;;22.00;99.90;;;;;;6094957;23;20014;-88
2022/03/19 10:31:46;;;;;;;10.15;2.83;;;22.60;99.90;;;;;;6070190;23;20359;-88
2022/03/19 10:34:13;;;;;;;11.10;2.83;;;23.00;99.90;;;;;;6093645;23;20022;-86
2022/03/19 10:36:42;;;;;;;13.55;2.90;;;22.90;99.90;;;;;;6095261;23;20062;-88
2022/03/19 10:39:13;;;;;;;10.05;2.92;;;22.80;99.90;;;;;;6069208;23;20082;-87
2022/03/19 10:41:39;;;;;;;10.27;2.50;;;22.60;99.90;;;;;;6094633;23;20022;-87
2022/03/19 10:44:13;;;;;;;15.57;3.22;;;21.90;99.90;;;;;;6095077;23;20292;-87
2022/03/19 10:46:42;;;;;;;15.52;3.60;;;22.50;99.90;;;;;;6095772;23;20023;-87
2022/03/19 10:49:15;;;;;;;13.95;3.45;;;23.30;99.90;;;;;;6096282;23;20026;-88
2022/03/19 10:51:51;;;;;;;14.98;3.35;;;23.70;99.90;;;;;;6071077;23;20117;-87
2022/03/19 10:54:17;;;;;;;17.30;3.63;;;23.90;99.90;;;;;;6071301;23;20019;-88
2022/03/19 10:56:45;;;;;;;12.73;3.40;;;23.10;99.90;;;;;;6047331;23;20042;-88
2022/03/19 10:59:11;;;;;;;14.70;3.38;;;22.50;99.90;;;;;;6097378;23;20022;-87
2022/03/19 11:01:37;;;;;;;13.10;3.22;;;22.60;99.90;;;;;;6097094;23;20438;-86
2022/03/19 11:04:05;;;;;;;14.68;3.35;;;23.00;99.90;;;;;;6096018;23;20019;-89
2022/03/19 11:06:43;;;;;;;13.27;3.35;;;23.50;99.90;;;;;;6096814;23;20026;-88
2022/03/19 11:09:12;;;;;;;18.67;3.88;;;23.30;99.90;;;;;;6102144;23;20011;-92
2022/03/19 11:11:46;;;;;;;14.23;3.50;;;23.80;99.90;;;;;;6104543;23;20454;-89
2022/03/19 11:14:22;;;;;;;13.10;3.28;;;24.50;99.90;;;;;;6094500;23;20022;-86
2022/03/19 11:17:23;;;;;;;13.10;3.30;;;24.80;99.90;;;;;;6073254;23;20102;-89
2022/03/19 11:19:40;;;;;;;11.45;2.78;;;24.70;99.90;;;;;;6096788;23;20461;-86
2022/03/19 11:22:07;;;;;;;16.30;3.40;;;24.60;99.90;;;;;;6097921;23;20049;-92
2022/03/19 11:24:41;;;;;;;12.65;2.58;;;24.80;99.90;;;;;;6071852;23;20113;-89
2022/03/19 11:27:09;;;;;;;11.68;3.40;;;24.60;99.90;;;;;;6098150;23;20374;-87
2022/03/19 11:29:35;;;;;;;11.40;2.80;;;24.50;99.90;;;;;;6098242;23;20022;-88
2022/03/19 11:32:01;;;;;;;13.70;3.50;;;24.50;99.90;;;;;;6098123;23;20041;-88
2022/03/19 11:34:46;;;;;;;11.50;3.75;;;24.60;99.90;;;;;;6095141;23;20027;-88
2022/03/19 11:37:13;;;;;;;14.70;2.75;;;24.70;99.90;;;;;;6095823;23;20085;-88
2022/03/19 11:39:39;;;;;;;10.43;2.80;;;24.60;99.90;;;;;;6070445;23;20137;-89
2022/03/19 11:42:11;;;;;;;16.37;3.37;;;24.80;99.90;;;;;;6097940;23;20311;-90
2022/03/19 11:44:49;;;;;;;11.15;3.10;;;24.80;99.90;;;;;;6026227;23;20282;-88
2022/03/19 11:47:17;;;;;;;12.80;3.38;;;24.70;99.90;;;;;;6094457;23;20061;-89
2022/03/19 11:49:43;;;;;;;10.18;2.47;;;24.50;99.90;;;;;;6068791;23;20046;-93
2022/03/19 11:52:09;;;;;;;9.15;2.58;;;24.40;99.90;;;;;;6094739;23;20442;-87
2022/03/19 11:54:59;;;;;;;9.20;2.60;;;24.40;99.90;;;;;;6069604;23;20081;-93
2022/03/19 11:57:26;;;;;;;9.73;2.70;;;24.60;99.90;;;;;;6070584;23;20441;-87
2022/03/19 11:59:57;;;;;;;12.32;2.42;;;24.80;99.90;;;;;;6097018;23;20029;-90
2022/03/19 12:02:22;;;;;;;12.23;2.63;;;24.80;99.90;;;;;;6096668;23;20049;-90
2022/03/19 12:04:54;;;;;;;9.60;2.40;;;24.80;99.90;;;;;;6071012;23;20018;-92
2022/03/19 12:07:54;;;;;;;8.50;2.22;;;24.70;99.90;;;;;;6096398;23;20018;-91
2022/03/19 12:10:21;;;;;;;11.38;2.30;;;23.60;99.90;;;;;;6084555;23;20026;-89
2022/03/19 12:12:47;;;;;;;8.32;2.20;;;21.80;99.90;;;;;;6095863;23;20354;-89
2022/03/19 12:15:36;;;;;;;7.82;2.30;;;20.40;99.90;;;;;;6095037;23;20501;-87
2022/03/19 12:18:22;;;;;;;8.15;2.17;;;18.80;99.90;;;;;;6087939;23;20080;-87
2022/03/19 12:20:49;;;;;;;11.55;2.30;;;18.10;99.90;;;;;;6069683;23;20022;-86
2022/03/19 12:23:15;;;;;;;11.68;2.38;;;17.40;99.90;;;;;;6094307;23;20020;-87
2022/03/19 12:25:54;;;;;;;8.45;1.98;;;16.80;99.90;;;;;;6095337;23;20158;-86
2022/03/19 12:28:20;;;;;;;10.15;2.70;;;16.40;99.90;;;;;;6093130;23;20169;-87
2022/03/19 12:30:46;;;;;;;8.60;2.10;;;16.00;99.90;;;;;;6094514;23;20022;-87
2022/03/19 12:33:11;;;;;;;8.18;2.30;;;15.80;99.90;;;;;;6094115;23;20105;-86
2022/03/19 12:35:43;;;;;;;10.13;2.28;;;15.70;99.90;;;;;;6069346;23;20026;-87
2022/03/19 12:38:09;;;;;;;9.10;2.20;;;15.40;99.90;;;;;;6095163;23;20023;-87
2022/03/19 12:43:22;;;;;;;7.07;2.13;;;15.00;99.90;;;;;;6095465;23;20088;-87
2022/03/19 12:45:51;;;;;;;12.15;1.92;;;14.80;99.90;;;;;;6095725;23;20022;-87
2022/03/19 12:48:19;;;;;;;8.07;2.42;;;14.60;99.90;;;;;;6094088;23;20018;-86
2022/03/19 12:50:54;;;;;;;9.70;2.40;;;14.60;99.90;;;;;;6093339;23;20026;-88
2022/03/19 12:53:37;;;;;;;10.07;2.53;;;14.40;99.90;;;;;;6093974;23;20073;-87
2022/03/19 12:56:11;;;;;;;8.48;2.17;;;14.40;99.90;;;;;;6068975;23;20117;-84
2022/03/19 12:58:43;;;;;;;7.63;2.00;;;14.30;99.90;;;;;;6045446;23;20061;-88
2022/03/19 13:01:17;;;;;;;10.32;2.30;;;14.20;99.90;;;;;;6070178;23;20073;-88
2022/03/19 13:03:43;;;;;;;10.85;2.70;;;14.60;99.90;;;;;;6095598;23;20022;-88
2022/03/19 13:06:09;;;;;;;9.20;2.10;;;14.10;99.90;;;;;;6070727;23;20070;-90